UAE9860 EETN-LIMC
Flight info
| Callsign | UAE9860 |
|---|---|
| Flight time | 3h 9m |
| Altitude | 36000 |
| Route | LONSA DCT TODNA DCT ANFEV DCT PENOR DCT BODLA DCT IBAGA DCT DKB N869 TEDGO DCT SONOM/N0479F370 DCT GERSA DCT SOSON DCT DEGAD Z424 BASGO/N0491F290 Z424 AKASU/N0421F190 Z424 RIXUV |
| Aircraft | B77L/H-SDE1E2E3FGHIJ2J3J4J5M1RWXY/LB1D1 |
Departure
| Time | 2026-05-05 18:02 |
|---|---|
| Airport | Lennart Meri Tallinn Airport (EETN) |
Arrival
| Time | 2026-05-05 21:12 |
|---|---|
| Airport | Milan Malpensa International Airport (LIMC) |
| Time | Latitude | Longitude | Altitude | Speed | Heading |
|---|---|---|---|---|---|
| 2026-05-05 17:01 | 59.41586 | 24.80686 | 166 ft | 0 kts | 180° |
| 2026-05-05 17:02 | 59.41591 | 24.80685 | 166 ft | 0 kts | 180° |
| 2026-05-05 17:06 | 59.41580 | 24.80686 | 166 ft | 0 kts | 180° |
| 2026-05-05 17:06 | 59.41575 | 24.80686 | 166 ft | 0 kts | 180° |
| 2026-05-05 17:07 | 59.41583 | 24.80686 | 166 ft | 0 kts | 180° |
| 2026-05-05 17:07 | 59.41582 | 24.80686 | 166 ft | 0 kts | 180° |
| 2026-05-05 17:08 | 59.41583 | 24.80686 | 166 ft | 0 kts | 180° |
| 2026-05-05 17:08 | 59.41582 | 24.80686 | 166 ft | 0 kts | 180° |
| 2026-05-05 17:51 | 59.41571 | 24.80686 | 166 ft | 3 kts | 180° |
| 2026-05-05 17:51 | 59.41544 | 24.80685 | 166 ft | 5 kts | 180° |
| 2026-05-05 17:51 | 59.41515 | 24.80699 | 166 ft | 4 kts | 140° |
| 2026-05-05 17:52 | 59.41507 | 24.80765 | 166 ft | 7 kts | 96° |
| 2026-05-05 17:52 | 59.41506 | 24.80918 | 166 ft | 14 kts | 90° |
| 2026-05-05 17:52 | 59.41505 | 24.81135 | 166 ft | 18 kts | 90° |
| 2026-05-05 17:52 | 59.41505 | 24.81384 | 166 ft | 18 kts | 90° |
| 2026-05-05 17:53 | 59.41504 | 24.81626 | 166 ft | 18 kts | 90° |
| 2026-05-05 17:53 | 59.41503 | 24.81871 | 166 ft | 18 kts | 90° |
| 2026-05-05 17:53 | 59.41503 | 24.82116 | 166 ft | 18 kts | 90° |
| 2026-05-05 17:53 | 59.41502 | 24.82361 | 166 ft | 18 kts | 90° |
| 2026-05-05 17:54 | 59.41502 | 24.82606 | 166 ft | 18 kts | 90° |
| 2026-05-05 17:54 | 59.41501 | 24.82851 | 166 ft | 18 kts | 90° |
| 2026-05-05 17:54 | 59.41500 | 24.83095 | 166 ft | 18 kts | 90° |
| 2026-05-05 17:54 | 59.41500 | 24.83340 | 166 ft | 18 kts | 90° |
| 2026-05-05 17:55 | 59.41499 | 24.83585 | 166 ft | 18 kts | 90° |
| 2026-05-05 17:55 | 59.41498 | 24.83829 | 166 ft | 18 kts | 90° |
| 2026-05-05 17:55 | 59.41498 | 24.84073 | 166 ft | 18 kts | 90° |
| 2026-05-05 17:55 | 59.41497 | 24.84317 | 166 ft | 18 kts | 90° |
| 2026-05-05 17:56 | 59.41496 | 24.84561 | 166 ft | 18 kts | 90° |
| 2026-05-05 17:56 | 59.41496 | 24.84808 | 166 ft | 19 kts | 90° |
| 2026-05-05 17:56 | 59.41495 | 24.85080 | 166 ft | 21 kts | 90° |
| 2026-05-05 17:56 | 59.41494 | 24.85361 | 166 ft | 21 kts | 91° |
| 2026-05-05 17:57 | 59.41493 | 24.85641 | 166 ft | 21 kts | 90° |
| 2026-05-05 17:57 | 59.41493 | 24.85921 | 166 ft | 21 kts | 90° |
| 2026-05-05 17:57 | 59.41492 | 24.86202 | 166 ft | 21 kts | 90° |
| 2026-05-05 17:57 | 59.41491 | 24.86478 | 166 ft | 17 kts | 90° |
| 2026-05-05 17:58 | 59.41488 | 24.86661 | 166 ft | 10 kts | 105° |
| 2026-05-05 17:58 | 59.41447 | 24.86707 | 166 ft | 5 kts | 174° |
| 2026-05-05 17:58 | 59.41434 | 24.86708 | 166 ft | 0 kts | 178° |
| 2026-05-05 18:00 | 59.41372 | 24.86711 | 167 ft | 12 kts | 180° |
| 2026-05-05 18:00 | 59.41318 | 24.86674 | 166 ft | 6 kts | 239° |
| 2026-05-05 18:00 | 59.41316 | 24.86614 | 165 ft | 3 kts | 270° |
| 2026-05-05 18:01 | 59.41316 | 24.86609 | 165 ft | 0 kts | 270° |
| 2026-05-05 18:01 | 59.41317 | 24.86483 | 164 ft | 28 kts | 270° |
| 2026-05-05 18:02 | 59.41318 | 24.86012 | 164 ft | 78 kts | 270° |
| 2026-05-05 18:02 | 59.41322 | 24.84487 | 164 ft | 143 kts | 270° |
| 2026-05-05 18:02 | 59.41326 | 24.82351 | 571 ft | 158 kts | 269° |
| 2026-05-05 18:02 | 59.41307 | 24.80168 | 1262 ft | 161 kts | 269° |
| 2026-05-05 18:03 | 59.41114 | 24.78047 | 1942 ft | 164 kts | 244° |
| 2026-05-05 18:03 | 59.40434 | 24.76206 | 2526 ft | 167 kts | 238° |
| 2026-05-05 18:03 | 59.39751 | 24.74367 | 3189 ft | 166 kts | 239° |
| 2026-05-05 18:03 | 59.39063 | 24.72467 | 3679 ft | 180 kts | 239° |
| 2026-05-05 18:04 | 59.38292 | 24.70296 | 3919 ft | 208 kts | 239° |
| 2026-05-05 18:04 | 59.37414 | 24.67798 | 4170 ft | 238 kts | 238° |
| 2026-05-05 18:04 | 59.36453 | 24.65064 | 4875 ft | 247 kts | 238° |
| 2026-05-05 18:04 | 59.35474 | 24.62257 | 5773 ft | 251 kts | 238° |
| 2026-05-05 18:05 | 59.34487 | 24.59417 | 6709 ft | 252 kts | 238° |
| 2026-05-05 18:05 | 59.33507 | 24.56582 | 7696 ft | 249 kts | 238° |
| 2026-05-05 18:05 | 59.32548 | 24.53797 | 8730 ft | 245 kts | 238° |
| 2026-05-05 18:05 | 59.31602 | 24.51046 | 9740 ft | 243 kts | 238° |
| 2026-05-05 18:06 | 59.30653 | 24.48279 | 10444 ft | 250 kts | 238° |
| 2026-05-05 18:06 | 59.29992 | 24.46345 | 10595 ft | 267 kts | 238° |
| 2026-05-05 18:06 | 59.28518 | 24.42032 | 10899 ft | 302 kts | 238° |
| 2026-05-05 18:06 | 59.27304 | 24.38485 | 11319 ft | 321 kts | 238° |
| 2026-05-05 18:07 | 59.26045 | 24.34821 | 12148 ft | 328 kts | 238° |
| 2026-05-05 18:07 | 59.24767 | 24.31106 | 13171 ft | 331 kts | 238° |
| 2026-05-05 18:07 | 59.23476 | 24.27364 | 14161 ft | 333 kts | 238° |
| 2026-05-05 18:07 | 59.22174 | 24.23587 | 15070 ft | 336 kts | 238° |
| 2026-05-05 18:08 | 59.20876 | 24.19827 | 15927 ft | 340 kts | 238° |
| 2026-05-05 18:08 | 59.19533 | 24.15940 | 16794 ft | 345 kts | 238° |
| 2026-05-05 18:08 | 59.18302 | 24.12386 | 17566 ft | 348 kts | 238° |
| 2026-05-05 18:08 | 59.16953 | 24.08496 | 18375 ft | 352 kts | 238° |
| 2026-05-05 18:09 | 59.15571 | 24.04516 | 19116 ft | 356 kts | 238° |
| 2026-05-05 18:09 | 59.14178 | 24.00513 | 19875 ft | 358 kts | 238° |
| 2026-05-05 18:09 | 59.12771 | 23.96473 | 20608 ft | 361 kts | 238° |
| 2026-05-05 18:09 | 59.11353 | 23.92407 | 21326 ft | 365 kts | 238° |
| 2026-05-05 18:10 | 59.09916 | 23.88298 | 22038 ft | 369 kts | 238° |
| 2026-05-05 18:10 | 59.08470 | 23.84173 | 22735 ft | 372 kts | 238° |
| 2026-05-05 18:10 | 59.06902 | 23.80129 | 23422 ft | 377 kts | 233° |
| 2026-05-05 18:10 | 59.05185 | 23.76247 | 23991 ft | 381 kts | 232° |
| 2026-05-05 18:11 | 59.03556 | 23.72723 | 24507 ft | 385 kts | 231° |
| 2026-05-05 18:11 | 59.01773 | 23.68906 | 25040 ft | 388 kts | 231° |
| 2026-05-05 18:11 | 58.99930 | 23.64947 | 25587 ft | 392 kts | 231° |
| 2026-05-05 18:11 | 58.98113 | 23.61020 | 25834 ft | 403 kts | 231° |
| 2026-05-05 18:12 | 58.96220 | 23.56899 | 25941 ft | 415 kts | 231° |
| 2026-05-05 18:12 | 58.94287 | 23.52679 | 26173 ft | 423 kts | 231° |
| 2026-05-05 18:12 | 58.92311 | 23.48363 | 26541 ft | 428 kts | 231° |
| 2026-05-05 18:12 | 58.90334 | 23.44049 | 26989 ft | 429 kts | 231° |
| 2026-05-05 18:13 | 58.88346 | 23.39715 | 27415 ft | 431 kts | 231° |
| 2026-05-05 18:13 | 58.86350 | 23.35369 | 27800 ft | 434 kts | 231° |
| 2026-05-05 18:13 | 58.84339 | 23.30997 | 28134 ft | 437 kts | 231° |
| 2026-05-05 18:13 | 58.82311 | 23.26595 | 28487 ft | 439 kts | 231° |
| 2026-05-05 18:14 | 58.80278 | 23.22193 | 28957 ft | 439 kts | 231° |
| 2026-05-05 18:14 | 58.78251 | 23.17813 | 29519 ft | 437 kts | 231° |
| 2026-05-05 18:14 | 58.76232 | 23.13459 | 30051 ft | 435 kts | 231° |
| 2026-05-05 18:14 | 58.74219 | 23.09124 | 30464 ft | 434 kts | 231° |
| 2026-05-05 18:15 | 58.72202 | 23.04789 | 30828 ft | 434 kts | 231° |
| 2026-05-05 18:15 | 58.70188 | 23.00467 | 31203 ft | 434 kts | 231° |
| 2026-05-05 18:15 | 58.68171 | 22.96145 | 31580 ft | 434 kts | 231° |
| 2026-05-05 18:15 | 58.66155 | 22.91837 | 31971 ft | 433 kts | 231° |
| 2026-05-05 18:16 | 58.64142 | 22.87542 | 32354 ft | 432 kts | 231° |
| 2026-05-05 18:16 | 58.62132 | 22.83261 | 32694 ft | 432 kts | 231° |
| 2026-05-05 18:16 | 58.60116 | 22.78975 | 33049 ft | 432 kts | 231° |
| 2026-05-05 18:16 | 58.58102 | 22.74700 | 33407 ft | 432 kts | 231° |
| 2026-05-05 18:17 | 58.56087 | 22.70432 | 33763 ft | 432 kts | 231° |
| 2026-05-05 18:17 | 58.54071 | 22.66171 | 34044 ft | 432 kts | 231° |
| 2026-05-05 18:17 | 58.52048 | 22.61903 | 34260 ft | 433 kts | 231° |
| 2026-05-05 18:17 | 58.50019 | 22.57627 | 34460 ft | 435 kts | 231° |
| 2026-05-05 18:18 | 58.47980 | 22.53341 | 34677 ft | 436 kts | 231° |
| 2026-05-05 18:18 | 58.45948 | 22.49076 | 34904 ft | 437 kts | 231° |
| 2026-05-05 18:18 | 58.43901 | 22.44789 | 35121 ft | 438 kts | 231° |
| 2026-05-05 18:18 | 58.41851 | 22.40503 | 35327 ft | 439 kts | 231° |
| 2026-05-05 18:19 | 58.39789 | 22.36199 | 35543 ft | 440 kts | 231° |
| 2026-05-05 18:19 | 58.37721 | 22.31894 | 35748 ft | 441 kts | 230° |
| 2026-05-05 18:19 | 58.35645 | 22.27576 | 35809 ft | 444 kts | 230° |
| 2026-05-05 18:20 | 58.31455 | 22.18891 | 35892 ft | 444 kts | 230° |
| 2026-05-05 18:20 | 58.27286 | 22.10283 | 35891 ft | 441 kts | 230° |
| 2026-05-05 18:21 | 58.23136 | 22.01746 | 35890 ft | 439 kts | 230° |
| 2026-05-05 18:21 | 58.18989 | 21.93244 | 35896 ft | 439 kts | 230° |
| 2026-05-05 18:22 | 58.14839 | 21.84764 | 35893 ft | 439 kts | 230° |
| 2026-05-05 18:22 | 58.10680 | 21.76301 | 35900 ft | 440 kts | 230° |
| 2026-05-05 18:23 | 58.06504 | 21.67830 | 35895 ft | 441 kts | 230° |
| 2026-05-05 18:23 | 58.02311 | 21.59354 | 35895 ft | 442 kts | 230° |
| 2026-05-05 18:24 | 57.98131 | 21.50828 | 35899 ft | 443 kts | 231° |
| 2026-05-05 18:24 | 57.94045 | 21.42133 | 35901 ft | 444 kts | 231° |
| 2026-05-05 18:25 | 57.89963 | 21.33412 | 35901 ft | 444 kts | 231° |
| 2026-05-05 18:25 | 57.85860 | 21.24718 | 35901 ft | 445 kts | 231° |
| 2026-05-05 18:26 | 57.81740 | 21.16051 | 35903 ft | 445 kts | 231° |
| 2026-05-05 18:26 | 57.77788 | 21.07775 | 35907 ft | 445 kts | 231° |
| 2026-05-05 18:27 | 57.73655 | 20.99152 | 35901 ft | 445 kts | 231° |
| 2026-05-05 18:27 | 57.69530 | 20.90577 | 35900 ft | 445 kts | 231° |
| 2026-05-05 18:28 | 57.63302 | 20.77689 | 35904 ft | 445 kts | 231° |
| 2026-05-05 18:28 | 57.59142 | 20.69119 | 35908 ft | 446 kts | 231° |
| 2026-05-05 18:29 | 57.54975 | 20.60566 | 35908 ft | 446 kts | 230° |
| 2026-05-05 18:29 | 57.50796 | 20.52021 | 35907 ft | 446 kts | 230° |
| 2026-05-05 18:30 | 57.46612 | 20.43495 | 35911 ft | 447 kts | 230° |
| 2026-05-05 18:30 | 57.42416 | 20.34979 | 35905 ft | 447 kts | 230° |
| 2026-05-05 18:31 | 57.38211 | 20.26473 | 35909 ft | 447 kts | 230° |
| 2026-05-05 18:31 | 57.33997 | 20.17982 | 35910 ft | 448 kts | 230° |
| 2026-05-05 18:32 | 57.29773 | 20.09501 | 35910 ft | 448 kts | 230° |
| 2026-05-05 18:32 | 57.25537 | 20.01026 | 35911 ft | 449 kts | 230° |
| 2026-05-05 18:33 | 57.21294 | 19.92569 | 35910 ft | 449 kts | 230° |
| 2026-05-05 18:33 | 57.17039 | 19.84119 | 35913 ft | 450 kts | 230° |
| 2026-05-05 18:34 | 57.12775 | 19.75682 | 35914 ft | 450 kts | 230° |
| 2026-05-05 18:34 | 57.08503 | 19.67258 | 35909 ft | 450 kts | 230° |
| 2026-05-05 18:35 | 57.04223 | 19.58851 | 35911 ft | 451 kts | 230° |
| 2026-05-05 18:35 | 56.99932 | 19.50453 | 35908 ft | 451 kts | 230° |
| 2026-05-05 18:36 | 56.95636 | 19.42073 | 35915 ft | 451 kts | 229° |
| 2026-05-05 18:36 | 56.91328 | 19.33702 | 35915 ft | 452 kts | 229° |
| 2026-05-05 18:37 | 56.87009 | 19.25339 | 35915 ft | 452 kts | 229° |
| 2026-05-05 18:37 | 56.82679 | 19.16985 | 35916 ft | 453 kts | 229° |
| 2026-05-05 18:38 | 56.78369 | 19.08699 | 35915 ft | 453 kts | 229° |
| 2026-05-05 18:38 | 56.74024 | 19.00375 | 35917 ft | 453 kts | 229° |
| 2026-05-05 18:39 | 56.69640 | 18.92008 | 35921 ft | 454 kts | 229° |
| 2026-05-05 18:39 | 56.65279 | 18.83714 | 35919 ft | 454 kts | 229° |
| 2026-05-05 18:40 | 56.60911 | 18.75437 | 35915 ft | 454 kts | 229° |
| 2026-05-05 18:40 | 56.56535 | 18.67174 | 35913 ft | 454 kts | 229° |
| 2026-05-05 18:41 | 56.52153 | 18.58930 | 35931 ft | 454 kts | 229° |
| 2026-05-05 18:41 | 56.47796 | 18.50760 | 35925 ft | 454 kts | 229° |
| 2026-05-05 18:42 | 56.43402 | 18.42551 | 35920 ft | 454 kts | 229° |
| 2026-05-05 18:42 | 56.39005 | 18.34365 | 35915 ft | 454 kts | 229° |
| 2026-05-05 18:43 | 56.34601 | 18.26194 | 35923 ft | 454 kts | 229° |
| 2026-05-05 18:43 | 56.30189 | 18.18039 | 35918 ft | 454 kts | 229° |
| 2026-05-05 18:44 | 56.25768 | 18.09894 | 35919 ft | 454 kts | 228° |
| 2026-05-05 18:44 | 56.21344 | 18.01774 | 35924 ft | 455 kts | 228° |
| 2026-05-05 18:45 | 56.16911 | 17.93665 | 35920 ft | 455 kts | 228° |
| 2026-05-05 18:45 | 56.13226 | 17.86945 | 35915 ft | 455 kts | 228° |
| 2026-05-05 18:46 | 56.08062 | 17.77562 | 35921 ft | 455 kts | 228° |
| 2026-05-05 18:46 | 56.03615 | 17.69512 | 35918 ft | 455 kts | 228° |
| 2026-05-05 18:47 | 55.99880 | 17.62770 | 35919 ft | 455 kts | 228° |
| 2026-05-05 18:47 | 55.95416 | 17.54741 | 35919 ft | 455 kts | 228° |
| 2026-05-05 18:48 | 55.90949 | 17.46732 | 35916 ft | 455 kts | 228° |
| 2026-05-05 18:48 | 55.86507 | 17.38793 | 35914 ft | 456 kts | 228° |
| 2026-05-05 18:49 | 55.82019 | 17.30826 | 35917 ft | 456 kts | 226° |
| 2026-05-05 18:49 | 55.76785 | 17.24231 | 35923 ft | 463 kts | 212° |
| 2026-05-05 18:50 | 55.70812 | 17.19805 | 35918 ft | 469 kts | 201° |
| 2026-05-05 18:50 | 55.64682 | 17.15965 | 35911 ft | 464 kts | 210° |
| 2026-05-05 18:51 | 55.59165 | 17.10363 | 35911 ft | 458 kts | 219° |
| 2026-05-05 18:51 | 55.53978 | 17.03823 | 35910 ft | 458 kts | 219° |
| 2026-05-05 18:52 | 55.48782 | 16.97323 | 35927 ft | 458 kts | 219° |
| 2026-05-05 18:52 | 55.43575 | 16.90867 | 35922 ft | 457 kts | 219° |
| 2026-05-05 18:53 | 55.38370 | 16.84451 | 35917 ft | 457 kts | 219° |
| 2026-05-05 18:53 | 55.33163 | 16.78056 | 35919 ft | 456 kts | 219° |
| 2026-05-05 18:54 | 55.27971 | 16.71700 | 35915 ft | 455 kts | 219° |
| 2026-05-05 18:54 | 55.22786 | 16.65373 | 35916 ft | 454 kts | 219° |
| 2026-05-05 18:55 | 55.17605 | 16.59069 | 35915 ft | 453 kts | 219° |
| 2026-05-05 18:55 | 55.12434 | 16.52798 | 35918 ft | 452 kts | 219° |
| 2026-05-05 18:56 | 55.07302 | 16.46594 | 35918 ft | 451 kts | 219° |
| 2026-05-05 18:56 | 55.02138 | 16.40372 | 35921 ft | 451 kts | 219° |
| 2026-05-05 18:57 | 54.96975 | 16.34169 | 35916 ft | 450 kts | 219° |
| 2026-05-05 18:57 | 54.91815 | 16.27991 | 35918 ft | 450 kts | 219° |
| 2026-05-05 18:58 | 54.86658 | 16.21836 | 35917 ft | 450 kts | 219° |
| 2026-05-05 18:58 | 54.81500 | 16.15700 | 35915 ft | 449 kts | 219° |
| 2026-05-05 18:59 | 54.76346 | 16.09587 | 35916 ft | 449 kts | 219° |
| 2026-05-05 18:59 | 54.71190 | 16.03491 | 35913 ft | 448 kts | 219° |
| 2026-05-05 19:00 | 54.66036 | 15.97417 | 35911 ft | 448 kts | 219° |
| 2026-05-05 19:00 | 54.60889 | 15.91369 | 35909 ft | 447 kts | 219° |
| 2026-05-05 19:01 | 54.55742 | 15.85341 | 35911 ft | 447 kts | 219° |
| 2026-05-05 19:01 | 54.50596 | 15.79332 | 35912 ft | 446 kts | 219° |
| 2026-05-05 19:02 | 54.45457 | 15.73350 | 35910 ft | 446 kts | 218° |
| 2026-05-05 19:02 | 54.40319 | 15.67388 | 35909 ft | 445 kts | 218° |
| 2026-05-05 19:03 | 54.35190 | 15.61454 | 35919 ft | 445 kts | 218° |
| 2026-05-05 19:03 | 54.30058 | 15.55534 | 35905 ft | 444 kts | 218° |
| 2026-05-05 19:04 | 54.24928 | 15.49635 | 35909 ft | 444 kts | 218° |
| 2026-05-05 19:04 | 54.19790 | 15.43744 | 35910 ft | 444 kts | 218° |
| 2026-05-05 19:05 | 54.14648 | 15.37868 | 35907 ft | 445 kts | 218° |
| 2026-05-05 19:05 | 54.09536 | 15.32042 | 35909 ft | 445 kts | 218° |
| 2026-05-05 19:06 | 54.04380 | 15.26185 | 35906 ft | 446 kts | 218° |
| 2026-05-05 19:06 | 53.99208 | 15.20328 | 35898 ft | 447 kts | 218° |
| 2026-05-05 19:07 | 53.94023 | 15.14473 | 35899 ft | 448 kts | 218° |
| 2026-05-05 19:07 | 53.88826 | 15.08623 | 35892 ft | 449 kts | 218° |
| 2026-05-05 19:08 | 53.83617 | 15.02779 | 35910 ft | 450 kts | 217° |
| 2026-05-05 19:08 | 53.78383 | 14.96921 | 35873 ft | 452 kts | 217° |
| 2026-05-05 19:09 | 53.73135 | 14.91068 | 35879 ft | 452 kts | 217° |
| 2026-05-05 19:09 | 53.67890 | 14.85235 | 35888 ft | 452 kts | 217° |
| 2026-05-05 19:10 | 53.62599 | 14.79368 | 35891 ft | 452 kts | 217° |
| 2026-05-05 19:10 | 53.57336 | 14.73551 | 35890 ft | 453 kts | 217° |
| 2026-05-05 19:11 | 53.52097 | 14.67776 | 35866 ft | 454 kts | 217° |
| 2026-05-05 19:11 | 53.46820 | 14.61979 | 35886 ft | 453 kts | 217° |
| 2026-05-05 19:12 | 53.41544 | 14.56199 | 35882 ft | 453 kts | 217° |
| 2026-05-05 19:12 | 53.36268 | 14.50436 | 35869 ft | 453 kts | 217° |
| 2026-05-05 19:13 | 53.30991 | 14.44686 | 35867 ft | 452 kts | 217° |
| 2026-05-05 19:13 | 53.25730 | 14.38916 | 35864 ft | 451 kts | 218° |
| 2026-05-05 19:14 | 53.20627 | 14.32838 | 35863 ft | 450 kts | 219° |
| 2026-05-05 19:14 | 53.15567 | 14.26690 | 35859 ft | 450 kts | 219° |
| 2026-05-05 19:15 | 53.10492 | 14.20588 | 35863 ft | 450 kts | 219° |
| 2026-05-05 19:15 | 53.05403 | 14.14533 | 35859 ft | 450 kts | 218° |
| 2026-05-05 19:16 | 53.00304 | 14.08499 | 35857 ft | 450 kts | 218° |
| 2026-05-05 19:16 | 52.95200 | 14.02480 | 35861 ft | 450 kts | 218° |
| 2026-05-05 19:17 | 52.90092 | 13.96472 | 35849 ft | 450 kts | 218° |
| 2026-05-05 19:17 | 52.84977 | 13.90473 | 35848 ft | 451 kts | 218° |
| 2026-05-05 19:18 | 52.79858 | 13.84486 | 35848 ft | 451 kts | 218° |
| 2026-05-05 19:18 | 52.74738 | 13.78516 | 35842 ft | 451 kts | 218° |
| 2026-05-05 19:19 | 52.69608 | 13.72551 | 35843 ft | 451 kts | 218° |
| 2026-05-05 19:19 | 52.64472 | 13.66598 | 35840 ft | 451 kts | 217° |
| 2026-05-05 19:20 | 52.59337 | 13.60662 | 35832 ft | 452 kts | 217° |
| 2026-05-05 19:20 | 52.54190 | 13.54731 | 35831 ft | 452 kts | 217° |
| 2026-05-05 19:21 | 52.49068 | 13.48846 | 35829 ft | 452 kts | 217° |
| 2026-05-05 19:21 | 52.43908 | 13.42933 | 35829 ft | 452 kts | 217° |
| 2026-05-05 19:22 | 52.38750 | 13.37041 | 35829 ft | 452 kts | 217° |
| 2026-05-05 19:22 | 52.33590 | 13.31162 | 35828 ft | 452 kts | 217° |
| 2026-05-05 19:23 | 52.28427 | 13.25298 | 35828 ft | 452 kts | 216° |
| 2026-05-05 19:23 | 52.23261 | 13.19448 | 35824 ft | 452 kts | 216° |
| 2026-05-05 19:24 | 52.18089 | 13.13606 | 35824 ft | 452 kts | 216° |
| 2026-05-05 19:24 | 52.12911 | 13.07777 | 35815 ft | 453 kts | 216° |
| 2026-05-05 19:25 | 52.07729 | 13.01957 | 35810 ft | 453 kts | 216° |
| 2026-05-05 19:25 | 52.02543 | 12.96152 | 35809 ft | 453 kts | 216° |
| 2026-05-05 19:26 | 51.97350 | 12.90355 | 35805 ft | 453 kts | 216° |
| 2026-05-05 19:26 | 51.92156 | 12.84572 | 35813 ft | 453 kts | 216° |
| 2026-05-05 19:27 | 51.86951 | 12.78794 | 35800 ft | 454 kts | 215° |
| 2026-05-05 19:27 | 51.81743 | 12.73030 | 35805 ft | 453 kts | 215° |
| 2026-05-05 19:28 | 51.76536 | 12.67284 | 35826 ft | 454 kts | 215° |
| 2026-05-05 19:28 | 51.73917 | 12.64399 | 35953 ft | 456 kts | 215° |
| 2026-05-05 19:28 | 51.71296 | 12.61517 | 36237 ft | 455 kts | 215° |
| 2026-05-05 19:29 | 51.68681 | 12.58645 | 36552 ft | 454 kts | 215° |
| 2026-05-05 19:29 | 51.66073 | 12.55785 | 36834 ft | 454 kts | 215° |
| 2026-05-05 19:29 | 51.63456 | 12.52919 | 37056 ft | 454 kts | 215° |
| 2026-05-05 19:29 | 51.60844 | 12.50064 | 37287 ft | 455 kts | 215° |
| 2026-05-05 19:30 | 51.58230 | 12.47209 | 37565 ft | 454 kts | 215° |
| 2026-05-05 19:30 | 51.55622 | 12.44366 | 37768 ft | 452 kts | 215° |
| 2026-05-05 19:30 | 51.51348 | 12.39714 | 37803 ft | 442 kts | 215° |
| 2026-05-05 19:31 | 51.46291 | 12.34225 | 37805 ft | 437 kts | 215° |
| 2026-05-05 19:31 | 51.40431 | 12.27881 | 37804 ft | 437 kts | 215° |
| 2026-05-05 19:32 | 51.36212 | 12.23325 | 37808 ft | 437 kts | 215° |
| 2026-05-05 19:32 | 51.31163 | 12.17888 | 37803 ft | 438 kts | 214° |
| 2026-05-05 19:33 | 51.26101 | 12.12451 | 37803 ft | 439 kts | 214° |
| 2026-05-05 19:33 | 51.21059 | 12.07051 | 37804 ft | 440 kts | 214° |
| 2026-05-05 19:34 | 51.15966 | 12.01611 | 37795 ft | 441 kts | 214° |
| 2026-05-05 19:35 | 51.08305 | 11.93455 | 37785 ft | 442 kts | 214° |
| 2026-05-05 19:35 | 51.03188 | 11.88025 | 37789 ft | 442 kts | 214° |
| 2026-05-05 19:36 | 50.98075 | 11.82615 | 37785 ft | 442 kts | 214° |
| 2026-05-05 19:36 | 50.92955 | 11.77212 | 37794 ft | 441 kts | 213° |
| 2026-05-05 19:37 | 50.87840 | 11.71829 | 37781 ft | 441 kts | 213° |
| 2026-05-05 19:37 | 50.82732 | 11.66468 | 37795 ft | 441 kts | 213° |
| 2026-05-05 19:38 | 50.77616 | 11.61111 | 37782 ft | 441 kts | 213° |
| 2026-05-05 19:38 | 50.72493 | 11.55763 | 37775 ft | 441 kts | 213° |
| 2026-05-05 19:39 | 50.67377 | 11.50436 | 37778 ft | 440 kts | 213° |
| 2026-05-05 19:39 | 50.62258 | 11.45119 | 37775 ft | 440 kts | 212° |
| 2026-05-05 19:40 | 50.57135 | 11.39813 | 37788 ft | 441 kts | 212° |
| 2026-05-05 19:40 | 50.51985 | 11.34493 | 37773 ft | 444 kts | 212° |
| 2026-05-05 19:41 | 50.46816 | 11.29167 | 37772 ft | 444 kts | 212° |
| 2026-05-05 19:41 | 50.41646 | 11.23855 | 37794 ft | 445 kts | 212° |
| 2026-05-05 19:42 | 50.36459 | 11.18539 | 37790 ft | 446 kts | 212° |
| 2026-05-05 19:42 | 50.31241 | 11.13205 | 37793 ft | 448 kts | 212° |
| 2026-05-05 19:43 | 50.26011 | 11.07874 | 37794 ft | 449 kts | 212° |
| 2026-05-05 19:43 | 50.20760 | 11.02535 | 37796 ft | 451 kts | 212° |
| 2026-05-05 19:44 | 50.15493 | 10.97194 | 37799 ft | 452 kts | 212° |
| 2026-05-05 19:44 | 50.10210 | 10.91851 | 37802 ft | 453 kts | 212° |
| 2026-05-05 19:45 | 50.04913 | 10.86509 | 37816 ft | 454 kts | 212° |
| 2026-05-05 19:45 | 49.99580 | 10.81144 | 37816 ft | 458 kts | 212° |
| 2026-05-05 19:46 | 49.94221 | 10.75766 | 37812 ft | 458 kts | 212° |
| 2026-05-05 19:46 | 49.88862 | 10.70404 | 37816 ft | 458 kts | 212° |
| 2026-05-05 19:47 | 49.83504 | 10.65055 | 37819 ft | 458 kts | 212° |
| 2026-05-05 19:47 | 49.78154 | 10.59729 | 37818 ft | 457 kts | 212° |
| 2026-05-05 19:48 | 49.72581 | 10.55038 | 37827 ft | 456 kts | 203° |
| 2026-05-05 19:48 | 49.66623 | 10.51704 | 37839 ft | 455 kts | 199° |
| 2026-05-05 19:49 | 49.60639 | 10.48538 | 37832 ft | 454 kts | 199° |
| 2026-05-05 19:49 | 49.54709 | 10.45368 | 37838 ft | 454 kts | 199° |
| 2026-05-05 19:50 | 49.48748 | 10.42166 | 37833 ft | 453 kts | 199° |
| 2026-05-05 19:50 | 49.42792 | 10.38969 | 37832 ft | 453 kts | 199° |
| 2026-05-05 19:51 | 49.36844 | 10.35786 | 37833 ft | 453 kts | 199° |
| 2026-05-05 19:51 | 49.30889 | 10.32609 | 37837 ft | 453 kts | 199° |
| 2026-05-05 19:52 | 49.24936 | 10.29440 | 37841 ft | 453 kts | 199° |
| 2026-05-05 19:52 | 49.18984 | 10.26259 | 37848 ft | 453 kts | 202° |
| 2026-05-05 19:53 | 49.13591 | 10.21360 | 37857 ft | 453 kts | 218° |
| 2026-05-05 19:53 | 49.09192 | 10.14449 | 37845 ft | 456 kts | 230° |
| 2026-05-05 19:54 | 49.05260 | 10.06826 | 37835 ft | 458 kts | 230° |
| 2026-05-05 19:54 | 49.01298 | 9.99209 | 37835 ft | 459 kts | 230° |
| 2026-05-05 19:55 | 48.97295 | 9.91653 | 37837 ft | 459 kts | 229° |
| 2026-05-05 19:55 | 48.93268 | 9.84101 | 37839 ft | 460 kts | 229° |
| 2026-05-05 19:56 | 48.89233 | 9.76547 | 37843 ft | 460 kts | 229° |
| 2026-05-05 19:56 | 48.85188 | 9.68999 | 37819 ft | 461 kts | 229° |
| 2026-05-05 19:57 | 48.81137 | 9.61462 | 37828 ft | 461 kts | 229° |
| 2026-05-05 19:57 | 48.77081 | 9.53930 | 37835 ft | 461 kts | 229° |
| 2026-05-05 19:58 | 48.73021 | 9.46411 | 37848 ft | 461 kts | 229° |
| 2026-05-05 19:58 | 48.68939 | 9.38924 | 37876 ft | 461 kts | 229° |
| 2026-05-05 19:59 | 48.64829 | 9.31486 | 37850 ft | 459 kts | 225° |
| 2026-05-05 19:59 | 48.59789 | 9.25684 | 37854 ft | 457 kts | 208° |
| 2026-05-05 20:00 | 48.53889 | 9.22187 | 37861 ft | 456 kts | 197° |
| 2026-05-05 20:00 | 48.47771 | 9.19600 | 37851 ft | 457 kts | 196° |
| 2026-05-05 20:01 | 48.41648 | 9.17009 | 37858 ft | 457 kts | 197° |
| 2026-05-05 20:01 | 48.35540 | 9.14359 | 37850 ft | 457 kts | 197° |
| 2026-05-05 20:02 | 48.29429 | 9.11685 | 37854 ft | 457 kts | 197° |
| 2026-05-05 20:02 | 48.23315 | 9.09012 | 37868 ft | 458 kts | 197° |
| 2026-05-05 20:03 | 48.17195 | 9.06345 | 37875 ft | 458 kts | 197° |
| 2026-05-05 20:03 | 48.11071 | 9.03684 | 37870 ft | 459 kts | 197° |
| 2026-05-05 20:04 | 48.04935 | 9.01025 | 37861 ft | 459 kts | 197° |
| 2026-05-05 20:04 | 47.98789 | 8.98369 | 37880 ft | 460 kts | 197° |
| 2026-05-05 20:05 | 47.92636 | 8.95716 | 37885 ft | 460 kts | 197° |
| 2026-05-05 20:05 | 47.86478 | 8.93067 | 37877 ft | 461 kts | 197° |
| 2026-05-05 20:06 | 47.80309 | 8.90419 | 37877 ft | 461 kts | 197° |
| 2026-05-05 20:06 | 47.74207 | 8.87662 | 37872 ft | 461 kts | 199° |
| 2026-05-05 20:07 | 47.68129 | 8.84604 | 37893 ft | 461 kts | 200° |
| 2026-05-05 20:07 | 47.62064 | 8.81546 | 37904 ft | 460 kts | 200° |
| 2026-05-05 20:08 | 47.55986 | 8.78536 | 37909 ft | 460 kts | 200° |
| 2026-05-05 20:08 | 47.49909 | 8.75553 | 37913 ft | 459 kts | 200° |
| 2026-05-05 20:09 | 47.43841 | 8.72584 | 37910 ft | 459 kts | 200° |
| 2026-05-05 20:09 | 47.37783 | 8.69626 | 37910 ft | 459 kts | 200° |
| 2026-05-05 20:10 | 47.31719 | 8.66670 | 37909 ft | 458 kts | 200° |
| 2026-05-05 20:10 | 47.25670 | 8.63729 | 37911 ft | 458 kts | 200° |
| 2026-05-05 20:11 | 47.19656 | 8.60811 | 37903 ft | 458 kts | 200° |
| 2026-05-05 20:11 | 47.13600 | 8.57880 | 37911 ft | 458 kts | 200° |
| 2026-05-05 20:12 | 47.07527 | 8.55064 | 37935 ft | 460 kts | 195° |
| 2026-05-05 20:12 | 47.01481 | 8.53899 | 37928 ft | 464 kts | 185° |
| 2026-05-05 20:13 | 46.95074 | 8.54328 | 37914 ft | 450 kts | 177° |
| 2026-05-05 20:13 | 46.88892 | 8.55309 | 37909 ft | 444 kts | 177° |
| 2026-05-05 20:13 | 46.85834 | 8.55787 | 37761 ft | 441 kts | 178° |
| 2026-05-05 20:14 | 46.82812 | 8.56243 | 37633 ft | 431 kts | 178° |
| 2026-05-05 20:14 | 46.79864 | 8.56676 | 37444 ft | 421 kts | 178° |
| 2026-05-05 20:14 | 46.76978 | 8.57092 | 37198 ft | 411 kts | 179° |
| 2026-05-05 20:14 | 46.74158 | 8.57493 | 37047 ft | 405 kts | 179° |
| 2026-05-05 20:15 | 46.72304 | 8.57755 | 36918 ft | 403 kts | 179° |
| 2026-05-05 20:15 | 46.69527 | 8.58146 | 36714 ft | 399 kts | 179° |
| 2026-05-05 20:15 | 46.66783 | 8.58537 | 36290 ft | 394 kts | 179° |
| 2026-05-05 20:15 | 46.64073 | 8.58924 | 35920 ft | 389 kts | 180° |
| 2026-05-05 20:16 | 46.61396 | 8.59304 | 35570 ft | 384 kts | 180° |
| 2026-05-05 20:16 | 46.58750 | 8.59636 | 35212 ft | 378 kts | 184° |
| 2026-05-05 20:16 | 46.56155 | 8.59505 | 34974 ft | 368 kts | 192° |
| 2026-05-05 20:17 | 46.51150 | 8.58184 | 34978 ft | 365 kts | 200° |
| 2026-05-05 20:17 | 46.48731 | 8.57131 | 34812 ft | 361 kts | 202° |
| 2026-05-05 20:17 | 46.46355 | 8.56022 | 34458 ft | 357 kts | 202° |
| 2026-05-05 20:17 | 46.44010 | 8.54916 | 34161 ft | 351 kts | 202° |
| 2026-05-05 20:18 | 46.41707 | 8.53838 | 33894 ft | 345 kts | 203° |
| 2026-05-05 20:18 | 46.39434 | 8.52780 | 33493 ft | 342 kts | 202° |
| 2026-05-05 20:18 | 46.37173 | 8.51733 | 33041 ft | 339 kts | 202° |
| 2026-05-05 20:18 | 46.34929 | 8.50700 | 32613 ft | 336 kts | 202° |
| 2026-05-05 20:19 | 46.32704 | 8.49676 | 32110 ft | 335 kts | 202° |
| 2026-05-05 20:19 | 46.30482 | 8.48670 | 31657 ft | 335 kts | 200° |
| 2026-05-05 20:19 | 46.28182 | 8.48022 | 31194 ft | 338 kts | 192° |
| 2026-05-05 20:19 | 46.25867 | 8.47718 | 30821 ft | 339 kts | 188° |
| 2026-05-05 20:20 | 46.23502 | 8.47716 | 30369 ft | 341 kts | 182° |
| 2026-05-05 20:20 | 46.21135 | 8.48037 | 29900 ft | 342 kts | 180° |
| 2026-05-05 20:20 | 46.18775 | 8.48419 | 29401 ft | 340 kts | 180° |
| 2026-05-05 20:20 | 46.16434 | 8.48791 | 29038 ft | 336 kts | 180° |
| 2026-05-05 20:21 | 46.14081 | 8.49142 | 29021 ft | 343 kts | 180° |
| 2026-05-05 20:21 | 46.09383 | 8.50409 | 28751 ft | 345 kts | 168° |
| 2026-05-05 20:21 | 46.07142 | 8.51628 | 28372 ft | 343 kts | 166° |
| 2026-05-05 20:22 | 46.04924 | 8.52851 | 27957 ft | 341 kts | 166° |
| 2026-05-05 20:22 | 46.02711 | 8.54057 | 27541 ft | 338 kts | 166° |
| 2026-05-05 20:22 | 46.00520 | 8.55243 | 27226 ft | 333 kts | 166° |
| 2026-05-05 20:22 | 45.98401 | 8.56386 | 27076 ft | 324 kts | 166° |
| 2026-05-05 20:23 | 45.96318 | 8.57511 | 26921 ft | 315 kts | 166° |
| 2026-05-05 20:23 | 45.94348 | 8.58570 | 26746 ft | 308 kts | 166° |
| 2026-05-05 20:23 | 45.92355 | 8.59637 | 26441 ft | 304 kts | 166° |
| 2026-05-05 20:23 | 45.90377 | 8.60738 | 25942 ft | 308 kts | 162° |
| 2026-05-05 20:24 | 45.88489 | 8.62302 | 25426 ft | 320 kts | 150° |
| 2026-05-05 20:24 | 45.86749 | 8.64346 | 24976 ft | 324 kts | 147° |
| 2026-05-05 20:24 | 45.84999 | 8.66450 | 24640 ft | 323 kts | 147° |
| 2026-05-05 20:24 | 45.83301 | 8.68466 | 24368 ft | 320 kts | 148° |
| 2026-05-05 20:25 | 45.81584 | 8.70471 | 24056 ft | 317 kts | 148° |
| 2026-05-05 20:25 | 45.79848 | 8.72477 | 23703 ft | 316 kts | 148° |
| 2026-05-05 20:25 | 45.78138 | 8.74444 | 23321 ft | 314 kts | 148° |
| 2026-05-05 20:25 | 45.76457 | 8.76361 | 22916 ft | 311 kts | 150° |
| 2026-05-05 20:26 | 45.74642 | 8.77968 | 22481 ft | 304 kts | 158° |
| 2026-05-05 20:26 | 45.72766 | 8.79356 | 22093 ft | 303 kts | 159° |
| 2026-05-05 20:26 | 45.70897 | 8.80732 | 21703 ft | 302 kts | 159° |
| 2026-05-05 20:26 | 45.69040 | 8.82120 | 21320 ft | 301 kts | 158° |
| 2026-05-05 20:27 | 45.67191 | 8.83523 | 20935 ft | 300 kts | 158° |
| 2026-05-05 20:27 | 45.65355 | 8.84927 | 20550 ft | 299 kts | 158° |
| 2026-05-05 20:27 | 45.63528 | 8.86328 | 20181 ft | 297 kts | 158° |
| 2026-05-05 20:27 | 45.61712 | 8.87726 | 19817 ft | 295 kts | 155° |
| 2026-05-05 20:28 | 45.60124 | 8.89631 | 19425 ft | 305 kts | 134° |
| 2026-05-05 20:28 | 45.59004 | 8.92241 | 19082 ft | 312 kts | 120° |
| 2026-05-05 20:28 | 45.58381 | 8.95238 | 18697 ft | 320 kts | 101° |
| 2026-05-05 20:28 | 45.58252 | 8.98414 | 18354 ft | 319 kts | 94° |
| 2026-05-05 20:29 | 45.58610 | 9.01552 | 17930 ft | 325 kts | 71° |
| 2026-05-05 20:29 | 45.59719 | 9.04360 | 17549 ft | 326 kts | 52° |
| 2026-05-05 20:29 | 45.61311 | 9.06650 | 17139 ft | 324 kts | 33° |
| 2026-05-05 20:29 | 45.63311 | 9.08076 | 16765 ft | 320 kts | 19° |
| 2026-05-05 20:30 | 45.65381 | 9.09257 | 16412 ft | 320 kts | 20° |
| 2026-05-05 20:30 | 45.67437 | 9.10458 | 16030 ft | 318 kts | 19° |
| 2026-05-05 20:30 | 45.69543 | 9.11140 | 15615 ft | 308 kts | 356° |
| 2026-05-05 20:30 | 45.71606 | 9.10654 | 15262 ft | 297 kts | 335° |
| 2026-05-05 20:31 | 45.73387 | 9.09278 | 14903 ft | 288 kts | 317° |
| 2026-05-05 20:31 | 45.74751 | 9.07254 | 14546 ft | 279 kts | 300° |
| 2026-05-05 20:31 | 45.75588 | 9.04799 | 14188 ft | 272 kts | 282° |
| 2026-05-05 20:31 | 45.75825 | 9.02177 | 13994 ft | 258 kts | 264° |
| 2026-05-05 20:32 | 45.75494 | 8.99708 | 13991 ft | 252 kts | 248° |
| 2026-05-05 20:32 | 45.74716 | 8.97477 | 13992 ft | 251 kts | 237° |
| 2026-05-05 20:32 | 45.73680 | 8.95465 | 13990 ft | 251 kts | 227° |
| 2026-05-05 20:32 | 45.72281 | 8.93992 | 13987 ft | 252 kts | 206° |
| 2026-05-05 20:33 | 45.70662 | 8.93030 | 13991 ft | 253 kts | 204° |
| 2026-05-05 20:33 | 45.69033 | 8.92064 | 13992 ft | 253 kts | 204° |
| 2026-05-05 20:33 | 45.67403 | 8.91095 | 13994 ft | 254 kts | 204° |
| 2026-05-05 20:33 | 45.65769 | 8.90118 | 14004 ft | 255 kts | 205° |
| 2026-05-05 20:34 | 45.64128 | 8.89131 | 14004 ft | 256 kts | 205° |
| 2026-05-05 20:34 | 45.62480 | 8.88136 | 14003 ft | 259 kts | 205° |
| 2026-05-05 20:34 | 45.60786 | 8.87308 | 13981 ft | 257 kts | 189° |
| 2026-05-05 20:34 | 45.59027 | 8.87510 | 13993 ft | 261 kts | 165° |
| 2026-05-05 20:35 | 45.57415 | 8.88722 | 13988 ft | 266 kts | 143° |
| 2026-05-05 20:35 | 45.56225 | 8.90766 | 13982 ft | 273 kts | 120° |
| 2026-05-05 20:35 | 45.55721 | 8.93387 | 13993 ft | 278 kts | 93° |
| 2026-05-05 20:35 | 45.56085 | 8.96106 | 13988 ft | 285 kts | 65° |
| 2026-05-05 20:36 | 45.57291 | 8.98367 | 14002 ft | 291 kts | 38° |
| 2026-05-05 20:36 | 45.59045 | 8.99772 | 13999 ft | 290 kts | 20° |
| 2026-05-05 20:36 | 45.60912 | 9.00868 | 13986 ft | 291 kts | 20° |
| 2026-05-05 20:36 | 45.62782 | 9.01973 | 13986 ft | 291 kts | 21° |
| 2026-05-05 20:37 | 45.64644 | 9.03089 | 13988 ft | 289 kts | 20° |
| 2026-05-05 20:37 | 45.66556 | 9.03710 | 13983 ft | 279 kts | 353° |
| 2026-05-05 20:37 | 45.68386 | 9.03041 | 13965 ft | 271 kts | 327° |
| 2026-05-05 20:37 | 45.69833 | 9.01337 | 13707 ft | 271 kts | 303° |
| 2026-05-05 20:38 | 45.70653 | 8.98959 | 13308 ft | 266 kts | 279° |
| 2026-05-05 20:38 | 45.70713 | 8.96373 | 12910 ft | 259 kts | 256° |
| 2026-05-05 20:38 | 45.70043 | 8.94025 | 12516 ft | 254 kts | 235° |
| 2026-05-05 20:38 | 45.68883 | 8.92141 | 12136 ft | 251 kts | 217° |
| 2026-05-05 20:39 | 45.67354 | 8.91041 | 12016 ft | 244 kts | 203° |
| 2026-05-05 20:39 | 45.65759 | 8.90104 | 12004 ft | 251 kts | 204° |
| 2026-05-05 20:39 | 45.64148 | 8.89135 | 12002 ft | 251 kts | 204° |
| 2026-05-05 20:39 | 45.62546 | 8.88169 | 11985 ft | 248 kts | 204° |
| 2026-05-05 20:40 | 45.60942 | 8.87355 | 11975 ft | 244 kts | 189° |
| 2026-05-05 20:40 | 45.59238 | 8.87539 | 12002 ft | 252 kts | 164° |
| 2026-05-05 20:40 | 45.57671 | 8.88746 | 12002 ft | 262 kts | 142° |
| 2026-05-05 20:40 | 45.56541 | 8.90824 | 11992 ft | 272 kts | 116° |
| 2026-05-05 20:41 | 45.56165 | 8.93480 | 11985 ft | 277 kts | 87° |
| 2026-05-05 20:41 | 45.56718 | 8.96050 | 11983 ft | 277 kts | 56° |
| 2026-05-05 20:41 | 45.58079 | 8.97946 | 11998 ft | 275 kts | 28° |
| 2026-05-05 20:41 | 45.59811 | 8.99093 | 12005 ft | 277 kts | 21° |
| 2026-05-05 20:42 | 45.61605 | 9.00161 | 11990 ft | 282 kts | 21° |
| 2026-05-05 20:42 | 45.63412 | 9.01243 | 11980 ft | 280 kts | 21° |
| 2026-05-05 20:42 | 45.65197 | 9.02298 | 11968 ft | 273 kts | 16° |
| 2026-05-05 20:42 | 45.67041 | 9.02570 | 11987 ft | 266 kts | 346° |
| 2026-05-05 20:43 | 45.68729 | 9.01579 | 11999 ft | 263 kts | 319° |
| 2026-05-05 20:43 | 45.69925 | 8.99649 | 11995 ft | 260 kts | 294° |
| 2026-05-05 20:43 | 45.70423 | 8.97198 | 12002 ft | 257 kts | 269° |
| 2026-05-05 20:43 | 45.70138 | 8.94727 | 11985 ft | 250 kts | 244° |
| 2026-05-05 20:44 | 45.69195 | 8.92691 | 11995 ft | 245 kts | 226° |
| 2026-05-05 20:44 | 45.67812 | 8.91297 | 11991 ft | 244 kts | 204° |
| 2026-05-05 20:44 | 45.66234 | 8.90364 | 12005 ft | 248 kts | 204° |
| 2026-05-05 20:44 | 45.64620 | 8.89403 | 11828 ft | 255 kts | 204° |
| 2026-05-05 20:45 | 45.61313 | 8.87465 | 11047 ft | 254 kts | 196° |
| 2026-05-05 20:45 | 45.59558 | 8.87371 | 10666 ft | 255 kts | 168° |
| 2026-05-05 20:45 | 45.57954 | 8.88438 | 10308 ft | 258 kts | 143° |
| 2026-05-05 20:46 | 45.56816 | 8.90394 | 10002 ft | 257 kts | 117° |
| 2026-05-05 20:46 | 45.56404 | 8.92861 | 10010 ft | 262 kts | 91° |
| 2026-05-05 20:46 | 45.56794 | 8.95406 | 9995 ft | 267 kts | 63° |
| 2026-05-05 20:46 | 45.57961 | 8.97442 | 9988 ft | 267 kts | 36° |
| 2026-05-05 20:47 | 45.59598 | 8.98628 | 10000 ft | 265 kts | 21° |
| 2026-05-05 20:47 | 45.61322 | 8.99644 | 10006 ft | 271 kts | 22° |
| 2026-05-05 20:47 | 45.63070 | 9.00690 | 9987 ft | 270 kts | 22° |
| 2026-05-05 20:47 | 45.64783 | 9.01724 | 9970 ft | 264 kts | 21° |
| 2026-05-05 20:48 | 45.66540 | 9.02289 | 9693 ft | 258 kts | 355° |
| 2026-05-05 20:48 | 45.68236 | 9.01619 | 9243 ft | 253 kts | 326° |
| 2026-05-05 20:48 | 45.69522 | 8.99956 | 8765 ft | 249 kts | 301° |
| 2026-05-05 20:48 | 45.70184 | 8.97711 | 8337 ft | 244 kts | 276° |
| 2026-05-05 20:49 | 45.70126 | 8.95327 | 7975 ft | 240 kts | 252° |
| 2026-05-05 20:49 | 45.69404 | 8.93211 | 7597 ft | 238 kts | 232° |
| 2026-05-05 20:49 | 45.68221 | 8.91594 | 7216 ft | 235 kts | 207° |
| 2026-05-05 20:49 | 45.66708 | 8.90669 | 7046 ft | 242 kts | 202° |
| 2026-05-05 20:50 | 45.65155 | 8.89744 | 6980 ft | 240 kts | 202° |
| 2026-05-05 20:50 | 45.64146 | 8.89137 | 6985 ft | 234 kts | 202° |
| 2026-05-05 20:50 | 45.62167 | 8.87942 | 6985 ft | 230 kts | 202° |
| 2026-05-05 20:50 | 45.60638 | 8.87330 | 6983 ft | 232 kts | 180° |
| 2026-05-05 20:51 | 45.59063 | 8.87854 | 7004 ft | 239 kts | 153° |
| 2026-05-05 20:51 | 45.57804 | 8.89401 | 6997 ft | 242 kts | 126° |
| 2026-05-05 20:51 | 45.57197 | 8.91595 | 6985 ft | 245 kts | 97° |
| 2026-05-05 20:51 | 45.57439 | 8.94015 | 6986 ft | 247 kts | 66° |
| 2026-05-05 20:52 | 45.58475 | 8.95898 | 6990 ft | 248 kts | 37° |
| 2026-05-05 20:52 | 45.59997 | 8.97024 | 7007 ft | 249 kts | 22° |
| 2026-05-05 20:52 | 45.61618 | 8.97987 | 6995 ft | 255 kts | 22° |
| 2026-05-05 20:52 | 45.63261 | 8.98972 | 6994 ft | 255 kts | 23° |
| 2026-05-05 20:53 | 45.64888 | 8.99953 | 6978 ft | 252 kts | 22° |
| 2026-05-05 20:53 | 45.66554 | 9.00494 | 6972 ft | 246 kts | 354° |
| 2026-05-05 20:53 | 45.68169 | 8.99751 | 7012 ft | 248 kts | 323° |
| 2026-05-05 20:53 | 45.69332 | 8.97944 | 6999 ft | 249 kts | 294° |
| 2026-05-05 20:54 | 45.69713 | 8.95588 | 6992 ft | 243 kts | 263° |
| 2026-05-05 20:54 | 45.69210 | 8.93337 | 6967 ft | 238 kts | 233° |
| 2026-05-05 20:54 | 45.67997 | 8.91793 | 6959 ft | 233 kts | 210° |
| 2026-05-05 20:54 | 45.66549 | 8.90743 | 6864 ft | 233 kts | 204° |
| 2026-05-05 20:55 | 45.65074 | 8.89790 | 6764 ft | 232 kts | 204° |
| 2026-05-05 20:55 | 45.63599 | 8.88852 | 6645 ft | 232 kts | 204° |
| 2026-05-05 20:55 | 45.62111 | 8.87987 | 6505 ft | 229 kts | 193° |
| 2026-05-05 20:55 | 45.60530 | 8.88011 | 6369 ft | 228 kts | 169° |
| 2026-05-05 20:56 | 45.58953 | 8.88459 | 6273 ft | 233 kts | 170° |
| 2026-05-05 20:56 | 45.57345 | 8.88893 | 6165 ft | 237 kts | 170° |
| 2026-05-05 20:56 | 45.55740 | 8.89329 | 6087 ft | 232 kts | 170° |
| 2026-05-05 20:56 | 45.54162 | 8.89759 | 6074 ft | 229 kts | 170° |
| 2026-05-05 20:57 | 45.52585 | 8.90187 | 6043 ft | 233 kts | 170° |
| 2026-05-05 20:57 | 45.51000 | 8.90617 | 5991 ft | 229 kts | 170° |
| 2026-05-05 20:57 | 45.49478 | 8.91032 | 5980 ft | 216 kts | 170° |
| 2026-05-05 20:57 | 45.48027 | 8.91427 | 5980 ft | 212 kts | 170° |
| 2026-05-05 20:58 | 45.46577 | 8.91822 | 5972 ft | 211 kts | 170° |
| 2026-05-05 20:58 | 45.45164 | 8.92207 | 5982 ft | 207 kts | 170° |
| 2026-05-05 20:58 | 45.43759 | 8.92589 | 5982 ft | 206 kts | 170° |
| 2026-05-05 20:58 | 45.42804 | 8.92847 | 5994 ft | 209 kts | 170° |
| 2026-05-05 20:59 | 45.41361 | 8.93238 | 6006 ft | 212 kts | 170° |
| 2026-05-05 20:59 | 45.39909 | 8.93632 | 5988 ft | 211 kts | 170° |
| 2026-05-05 20:59 | 45.38471 | 8.94022 | 5990 ft | 209 kts | 170° |
| 2026-05-05 20:59 | 45.37045 | 8.94409 | 5987 ft | 208 kts | 170° |
| 2026-05-05 21:00 | 45.35628 | 8.94793 | 5977 ft | 207 kts | 171° |
| 2026-05-05 21:00 | 45.34218 | 8.95175 | 5987 ft | 206 kts | 171° |
| 2026-05-05 21:00 | 45.32808 | 8.95556 | 5985 ft | 206 kts | 171° |
| 2026-05-05 21:00 | 45.31398 | 8.95938 | 5998 ft | 207 kts | 171° |
| 2026-05-05 21:01 | 45.29979 | 8.96322 | 5999 ft | 209 kts | 171° |
| 2026-05-05 21:01 | 45.28566 | 8.96706 | 5997 ft | 210 kts | 171° |
| 2026-05-05 21:01 | 45.27124 | 8.97098 | 5983 ft | 212 kts | 171° |
| 2026-05-05 21:01 | 45.25675 | 8.97491 | 5982 ft | 212 kts | 171° |
| 2026-05-05 21:02 | 45.24219 | 8.97787 | 5959 ft | 210 kts | 186° |
| 2026-05-05 21:02 | 45.22884 | 8.97087 | 5960 ft | 206 kts | 220° |
| 2026-05-05 21:02 | 45.22112 | 8.95409 | 5976 ft | 206 kts | 253° |
| 2026-05-05 21:02 | 45.21891 | 8.93372 | 6002 ft | 214 kts | 262° |
| 2026-05-05 21:03 | 45.21765 | 8.91236 | 5991 ft | 219 kts | 263° |
| 2026-05-05 21:03 | 45.21651 | 8.89095 | 5970 ft | 215 kts | 263° |
| 2026-05-05 21:03 | 45.21544 | 8.87016 | 5955 ft | 208 kts | 263° |
| 2026-05-05 21:03 | 45.21642 | 8.84977 | 5968 ft | 214 kts | 289° |
| 2026-05-05 21:04 | 45.22539 | 8.83260 | 5993 ft | 226 kts | 323° |
| 2026-05-05 21:04 | 45.23977 | 8.82326 | 6009 ft | 231 kts | 341° |
| 2026-05-05 21:04 | 45.25515 | 8.81679 | 5995 ft | 229 kts | 343° |
| 2026-05-05 21:04 | 45.27076 | 8.81434 | 5779 ft | 226 kts | 6° |
| 2026-05-05 21:05 | 45.28625 | 8.81834 | 5560 ft | 226 kts | 12° |
| 2026-05-05 21:05 | 45.30155 | 8.82171 | 5387 ft | 222 kts | 355° |
| 2026-05-05 21:05 | 45.31681 | 8.81873 | 5355 ft | 223 kts | 349° |
| 2026-05-05 21:05 | 45.33216 | 8.81507 | 5292 ft | 220 kts | 349° |
| 2026-05-05 21:06 | 45.34674 | 8.81133 | 5251 ft | 207 kts | 348° |
| 2026-05-05 21:06 | 45.36064 | 8.80762 | 5132 ft | 201 kts | 348° |
| 2026-05-05 21:06 | 45.37444 | 8.80386 | 5070 ft | 202 kts | 348° |
| 2026-05-05 21:06 | 45.38822 | 8.80008 | 4993 ft | 201 kts | 348° |
| 2026-05-05 21:07 | 45.40161 | 8.79640 | 4961 ft | 193 kts | 348° |
| 2026-05-05 21:07 | 45.41474 | 8.79281 | 4744 ft | 191 kts | 348° |
| 2026-05-05 21:07 | 45.42771 | 8.78925 | 4508 ft | 189 kts | 348° |
| 2026-05-05 21:07 | 45.44060 | 8.78572 | 4239 ft | 188 kts | 348° |
| 2026-05-05 21:08 | 45.45331 | 8.78222 | 3981 ft | 185 kts | 349° |
| 2026-05-05 21:08 | 45.46592 | 8.77876 | 3744 ft | 185 kts | 349° |
| 2026-05-05 21:08 | 45.47855 | 8.77526 | 3500 ft | 185 kts | 349° |
| 2026-05-05 21:08 | 45.49115 | 8.77182 | 3261 ft | 184 kts | 349° |
| 2026-05-05 21:09 | 45.50367 | 8.76838 | 3017 ft | 181 kts | 350° |
| 2026-05-05 21:09 | 45.51605 | 8.76497 | 2791 ft | 183 kts | 350° |
| 2026-05-05 21:09 | 45.52862 | 8.76150 | 2543 ft | 184 kts | 350° |
| 2026-05-05 21:09 | 45.54111 | 8.75805 | 2290 ft | 181 kts | 351° |
| 2026-05-05 21:10 | 45.55317 | 8.75472 | 2052 ft | 171 kts | 351° |
| 2026-05-05 21:10 | 45.56431 | 8.75167 | 1795 ft | 155 kts | 351° |
| 2026-05-05 21:10 | 45.57454 | 8.74884 | 1518 ft | 146 kts | 350° |
| 2026-05-05 21:10 | 45.58443 | 8.74612 | 1334 ft | 144 kts | 349° |
| 2026-05-05 21:11 | 45.59417 | 8.74342 | 1167 ft | 143 kts | 349° |
| 2026-05-05 21:11 | 45.60392 | 8.74072 | 996 ft | 142 kts | 349° |
| 2026-05-05 21:11 | 45.61364 | 8.73809 | 817 ft | 142 kts | 349° |
| 2026-05-05 21:11 | 45.62309 | 8.73545 | 744 ft | 129 kts | 349° |
| 2026-05-05 21:12 | 45.63047 | 8.73342 | 739 ft | 82 kts | 349° |
| 2026-05-05 21:12 | 45.63476 | 8.73225 | 741 ft | 48 kts | 348° |
| 2026-05-05 21:12 | 45.63702 | 8.73087 | 741 ft | 30 kts | 324° |
| 2026-05-05 21:12 | 45.63824 | 8.72895 | 739 ft | 20 kts | 304° |
| 2026-05-05 21:13 | 45.63865 | 8.72808 | 740 ft | 9 kts | 304° |
| 2026-05-05 21:13 | 45.63900 | 8.72736 | 739 ft | 9 kts | 304° |
| 2026-05-05 21:13 | 45.63932 | 8.72665 | 740 ft | 8 kts | 297° |
| 2026-05-05 21:13 | 45.63920 | 8.72598 | 738 ft | 8 kts | 221° |
| 2026-05-05 21:14 | 45.63867 | 8.72589 | 740 ft | 9 kts | 171° |
| 2026-05-05 21:14 | 45.63785 | 8.72612 | 739 ft | 15 kts | 169° |
| 2026-05-05 21:14 | 45.63669 | 8.72644 | 737 ft | 20 kts | 169° |
| 2026-05-05 21:14 | 45.63525 | 8.72684 | 737 ft | 21 kts | 169° |
| 2026-05-05 21:15 | 45.63421 | 8.72684 | 740 ft | 11 kts | 227° |
| 2026-05-05 21:15 | 45.63400 | 8.72584 | 740 ft | 11 kts | 258° |
| 2026-05-05 21:15 | 45.63386 | 8.72480 | 738 ft | 11 kts | 259° |
| 2026-05-05 21:15 | 45.63371 | 8.72377 | 739 ft | 11 kts | 259° |
| 2026-05-05 21:16 | 45.63358 | 8.72274 | 741 ft | 11 kts | 259° |
| 2026-05-05 21:16 | 45.63344 | 8.72171 | 742 ft | 10 kts | 259° |
| 2026-05-05 21:16 | 45.63331 | 8.72077 | 739 ft | 8 kts | 259° |
| 2026-05-05 21:16 | 45.63316 | 8.71997 | 738 ft | 9 kts | 238° |
| 2026-05-05 21:17 | 45.63257 | 8.71972 | 740 ft | 9 kts | 171° |
| 2026-05-05 21:17 | 45.63189 | 8.71993 | 739 ft | 11 kts | 168° |
| 2026-05-05 21:17 | 45.63099 | 8.72018 | 740 ft | 15 kts | 169° |
| 2026-05-05 21:17 | 45.62996 | 8.72046 | 739 ft | 15 kts | 168° |
| 2026-05-05 21:18 | 45.62892 | 8.72075 | 740 ft | 15 kts | 169° |
| 2026-05-05 21:18 | 45.62787 | 8.72104 | 739 ft | 16 kts | 169° |
| 2026-05-05 21:18 | 45.62665 | 8.72138 | 738 ft | 19 kts | 169° |
| 2026-05-05 21:18 | 45.62534 | 8.72174 | 740 ft | 19 kts | 169° |
| 2026-05-05 21:19 | 45.62403 | 8.72210 | 741 ft | 19 kts | 169° |
| 2026-05-05 21:19 | 45.62272 | 8.72246 | 739 ft | 19 kts | 169° |
| 2026-05-05 21:19 | 45.62149 | 8.72280 | 741 ft | 17 kts | 169° |
| 2026-05-05 21:19 | 45.62042 | 8.72309 | 740 ft | 12 kts | 169° |
| 2026-05-05 21:20 | 45.61998 | 8.72322 | 738 ft | 1 kts | 169° |
| 2026-05-05 21:20 | 45.61997 | 8.72322 | 738 ft | 0 kts | 169° |
| 2026-05-05 21:20 | 45.61993 | 8.72323 | 739 ft | 2 kts | 169° |
| 2026-05-05 21:20 | 45.61967 | 8.72330 | 739 ft | 7 kts | 169° |
| 2026-05-05 21:21 | 45.61918 | 8.72344 | 741 ft | 7 kts | 169° |
| 2026-05-05 21:21 | 45.61871 | 8.72335 | 739 ft | 7 kts | 226° |
| 2026-05-05 21:21 | 45.61855 | 8.72261 | 739 ft | 8 kts | 259° |
| 2026-05-05 21:21 | 45.61843 | 8.72176 | 740 ft | 9 kts | 259° |
| 2026-05-05 21:22 | 45.61827 | 8.72090 | 739 ft | 8 kts | 237° |
| 2026-05-05 21:22 | 45.61776 | 8.72072 | 740 ft | 8 kts | 176° |
| 2026-05-05 21:22 | 45.61722 | 8.72079 | 738 ft | 6 kts | 197° |
| 2026-05-05 21:22 | 45.61704 | 8.72024 | 739 ft | 7 kts | 258° |
| 2026-05-05 21:23 | 45.61697 | 8.71977 | 741 ft | 3 kts | 259° |
| 2026-05-05 21:23 | 45.61696 | 8.71963 | 740 ft | 0 kts | 259° |